sensor_id;sensor_type;location;lat;lon;timestamp;P1;durP1;ratioP1;P2;durP2;ratioP2
57301;SDS011;43149;50.974;18.224;2023-03-05T00:02:35;27.80;;;5.90;;
57301;SDS011;43149;50.974;18.224;2023-03-05T00:12:19;17.80;;;4.70;;
57301;SDS011;43149;50.974;18.224;2023-03-05T00:22:03;8.50;;;3.50;;
57301;SDS011;43149;50.974;18.224;2023-03-05T00:31:47;16.60;;;4.30;;
57301;SDS011;43149;50.974;18.224;2023-03-05T00:41:35;16.60;;;4.00;;
57301;SDS011;43149;50.974;18.224;2023-03-05T00:51:19;18.90;;;4.50;;
57301;SDS011;43149;50.974;18.224;2023-03-05T01:01:03;8.70;;;4.40;;
57301;SDS011;43149;50.974;18.224;2023-03-05T01:10:47;12.80;;;3.40;;
57301;SDS011;43149;50.974;18.224;2023-03-05T01:20:31;13.50;;;3.70;;
57301;SDS011;43149;50.974;18.224;2023-03-05T01:30:18;15.00;;;4.90;;
57301;SDS011;43149;50.974;18.224;2023-03-05T01:40:06;8.00;;;3.70;;
57301;SDS011;43149;50.974;18.224;2023-03-05T01:49:55;3.00;;;2.10;;
57301;SDS011;43149;50.974;18.224;2023-03-05T01:59:49;2.70;;;1.30;;
57301;SDS011;43149;50.974;18.224;2023-03-05T02:09:38;4.00;;;1.30;;
57301;SDS011;43149;50.974;18.224;2023-03-05T02:19:24;8.40;;;1.60;;
57301;SDS011;43149;50.974;18.224;2023-03-05T02:29:12;12.70;;;2.10;;
57301;SDS011;43149;50.974;18.224;2023-03-05T02:38:59;2.00;;;1.00;;
57301;SDS011;43149;50.974;18.224;2023-03-05T02:48:44;11.80;;;2.50;;
57301;SDS011;43149;50.974;18.224;2023-03-05T02:58:29;1.30;;;1.30;;
57301;SDS011;43149;50.974;18.224;2023-03-05T03:08:13;1.60;;;1.50;;
57301;SDS011;43149;50.974;18.224;2023-03-05T03:17:56;16.50;;;1.30;;
57301;SDS011;43149;50.974;18.224;2023-03-05T03:27:41;3.00;;;1.60;;
57301;SDS011;43149;50.974;18.224;2023-03-05T03:37:25;2.90;;;1.00;;
57301;SDS011;43149;50.974;18.224;2023-03-05T03:47:09;0.60;;;0.60;;
57301;SDS011;43149;50.974;18.224;2023-03-05T03:56:53;4.80;;;1.70;;
57301;SDS011;43149;50.974;18.224;2023-03-05T04:06:38;0.90;;;0.90;;
57301;SDS011;43149;50.974;18.224;2023-03-05T04:16:25;5.60;;;1.60;;
57301;SDS011;43149;50.974;18.224;2023-03-05T04:26:09;1.70;;;1.20;;
57301;SDS011;43149;50.974;18.224;2023-03-05T04:35:52;9.80;;;1.50;;
57301;SDS011;43149;50.974;18.224;2023-03-05T04:45:40;5.20;;;1.70;;
57301;SDS011;43149;50.974;18.224;2023-03-05T04:55:25;1.80;;;0.80;;
57301;SDS011;43149;50.974;18.224;2023-03-05T05:05:11;5.00;;;1.70;;
57301;SDS011;43149;50.974;18.224;2023-03-05T05:14:58;4.10;;;1.80;;
57301;SDS011;43149;50.974;18.224;2023-03-05T05:24:45;1.30;;;1.10;;
57301;SDS011;43149;50.974;18.224;2023-03-05T05:34:28;1.60;;;1.50;;
57301;SDS011;43149;50.974;18.224;2023-03-05T05:44:15;0.80;;;0.70;;
57301;SDS011;43149;50.974;18.224;2023-03-05T05:53:59;5.50;;;1.50;;
57301;SDS011;43149;50.974;18.224;2023-03-05T06:03:45;3.60;;;3.30;;
57301;SDS011;43149;50.974;18.224;2023-03-05T06:13:32;7.30;;;2.10;;
57301;SDS011;43149;50.974;18.224;2023-03-05T06:23:20;6.40;;;3.20;;
57301;SDS011;43149;50.974;18.224;2023-03-05T06:33:04;2.40;;;1.90;;
57301;SDS011;43149;50.974;18.224;2023-03-05T06:40:24;10.20;;;5.10;;
57301;SDS011;43149;50.974;18.224;2023-03-05T06:50:09;15.80;;;3.20;;
57301;SDS011;43149;50.974;18.224;2023-03-05T06:59:58;5.90;;;1.40;;
57301;SDS011;43149;50.974;18.224;2023-03-05T07:09:42;2.20;;;2.00;;
57301;SDS011;43149;50.974;18.224;2023-03-05T07:19:32;0.90;;;0.50;;
57301;SDS011;43149;50.974;18.224;2023-03-05T07:29:22;3.40;;;1.60;;
57301;SDS011;43149;50.974;18.224;2023-03-05T07:39:09;4.70;;;1.80;;
57301;SDS011;43149;50.974;18.224;2023-03-05T07:48:56;1.90;;;1.40;;
57301;SDS011;43149;50.974;18.224;2023-03-05T07:58:48;10.70;;;1.50;;
57301;SDS011;43149;50.974;18.224;2023-03-05T08:08:33;5.50;;;2.40;;
57301;SDS011;43149;50.974;18.224;2023-03-05T08:18:23;3.70;;;2.60;;
57301;SDS011;43149;50.974;18.224;2023-03-05T08:28:07;7.30;;;3.20;;
57301;SDS011;43149;50.974;18.224;2023-03-05T08:37:50;6.70;;;3.60;;
57301;SDS011;43149;50.974;18.224;2023-03-05T08:47:36;20.00;;;7.80;;
57301;SDS011;43149;50.974;18.224;2023-03-05T08:57:19;33.40;;;10.70;;
57301;SDS011;43149;50.974;18.224;2023-03-05T09:07:03;22.60;;;10.90;;
57301;SDS011;43149;50.974;18.224;2023-03-05T09:16:49;15.60;;;10.20;;
57301;SDS011;43149;50.974;18.224;2023-03-05T09:21:41;28.10;;;11.90;;
57301;SDS011;43149;50.974;18.224;2023-03-05T09:31:25;19.40;;;7.80;;
57301;SDS011;43149;50.974;18.224;2023-03-05T09:41:20;18.00;;;8.00;;
57301;SDS011;43149;50.974;18.224;2023-03-05T09:51:37;4.40;;;2.70;;
57301;SDS011;43149;50.974;18.224;2023-03-05T10:01:42;2.70;;;1.90;;
57301;SDS011;43149;50.974;18.224;2023-03-05T10:32:41;31.40;;;5.00;;
57301;SDS011;43149;50.974;18.224;2023-03-05T10:53:22;1.00;;;1.00;;
57301;SDS011;43149;50.974;18.224;2023-03-05T11:03:53;4.10;;;3.30;;
57301;SDS011;43149;50.974;18.224;2023-03-05T11:14:33;4.20;;;1.00;;
57301;SDS011;43149;50.974;18.224;2023-03-05T11:25:25;15.20;;;8.40;;
57301;SDS011;43149;50.974;18.224;2023-03-05T11:35:31;11.50;;;7.50;;
57301;SDS011;43149;50.974;18.224;2023-03-05T11:45:27;0.50;;;0.50;;
57301;SDS011;43149;50.974;18.224;2023-03-05T11:55:16;13.40;;;5.90;;
57301;SDS011;43149;50.974;18.224;2023-03-05T12:05:45;24.10;;;5.20;;
57301;SDS011;43149;50.974;18.224;2023-03-05T12:15:39;1.00;;;0.90;;
57301;SDS011;43149;50.974;18.224;2023-03-05T12:35:53;5.30;;;1.30;;
57301;SDS011;43149;50.974;18.224;2023-03-05T12:46:35;9.10;;;1.30;;
57301;SDS011;43149;50.974;18.224;2023-03-05T12:57:00;7.30;;;2.50;;
57301;SDS011;43149;50.974;18.224;2023-03-05T13:06:58;9.50;;;3.80;;
57301;SDS011;43149;50.974;18.224;2023-03-05T13:16:53;2.80;;;2.00;;
57301;SDS011;43149;50.974;18.224;2023-03-05T13:26:47;6.40;;;3.00;;
57301;SDS011;43149;50.974;18.224;2023-03-05T13:36:39;8.00;;;3.20;;
57301;SDS011;43149;50.974;18.224;2023-03-05T13:46:48;2.00;;;1.90;;
57301;SDS011;43149;50.974;18.224;2023-03-05T13:56:48;5.50;;;3.50;;
57301;SDS011;43149;50.974;18.224;2023-03-05T14:07:00;4.80;;;3.80;;
57301;SDS011;43149;50.974;18.224;2023-03-05T14:16:54;5.00;;;3.70;;
57301;SDS011;43149;50.974;18.224;2023-03-05T14:27:05;5.00;;;2.80;;
57301;SDS011;43149;50.974;18.224;2023-03-05T14:36:59;4.30;;;2.90;;
57301;SDS011;43149;50.974;18.224;2023-03-05T14:47:25;10.10;;;4.20;;
57301;SDS011;43149;50.974;18.224;2023-03-05T14:57:18;7.40;;;4.80;;
57301;SDS011;43149;50.974;18.224;2023-03-05T15:07:09;15.60;;;4.50;;
57301;SDS011;43149;50.974;18.224;2023-03-05T15:17:18;20.40;;;6.60;;
57301;SDS011;43149;50.974;18.224;2023-03-05T15:27:05;6.00;;;3.50;;
57301;SDS011;43149;50.974;18.224;2023-03-05T15:36:48;11.10;;;2.80;;
57301;SDS011;43149;50.974;18.224;2023-03-05T15:46:33;11.80;;;5.90;;
57301;SDS011;43149;50.974;18.224;2023-03-05T15:56:18;23.10;;;11.50;;
57301;SDS011;43149;50.974;18.224;2023-03-05T16:06:06;19.80;;;6.20;;
57301;SDS011;43149;50.974;18.224;2023-03-05T16:15:53;12.80;;;6.90;;
57301;SDS011;43149;50.974;18.224;2023-03-05T16:25:37;15.30;;;5.00;;
57301;SDS011;43149;50.974;18.224;2023-03-05T16:35:23;23.60;;;8.50;;
57301;SDS011;43149;50.974;18.224;2023-03-05T16:45:08;21.00;;;7.30;;
57301;SDS011;43149;50.974;18.224;2023-03-05T16:54:55;23.40;;;9.80;;
57301;SDS011;43149;50.974;18.224;2023-03-05T17:04:43;38.50;;;9.30;;
57301;SDS011;43149;50.974;18.224;2023-03-05T17:14:28;6.30;;;4.70;;
57301;SDS011;43149;50.974;18.224;2023-03-05T17:24:15;33.00;;;12.90;;
57301;SDS011;43149;50.974;18.224;2023-03-05T17:41:17;77.50;;;16.90;;
57301;SDS011;43149;50.974;18.224;2023-03-05T17:51:07;187.20;;;23.50;;
57301;SDS011;43149;50.974;18.224;2023-03-05T18:00:56;40.10;;;10.50;;
57301;SDS011;43149;50.974;18.224;2023-03-05T18:10:41;24.80;;;10.20;;
57301;SDS011;43149;50.974;18.224;2023-03-05T18:20:28;40.30;;;14.30;;
57301;SDS011;43149;50.974;18.224;2023-03-05T18:30:21;46.20;;;14.00;;
57301;SDS011;43149;50.974;18.224;2023-03-05T18:40:11;10.90;;;7.70;;
57301;SDS011;43149;50.974;18.224;2023-03-05T18:50:09;45.20;;;7.30;;
57301;SDS011;43149;50.974;18.224;2023-03-05T18:59:58;6.70;;;5.20;;
57301;SDS011;43149;50.974;18.224;2023-03-05T19:09:48;22.90;;;5.70;;
57301;SDS011;43149;50.974;18.224;2023-03-05T19:19:41;24.70;;;7.90;;
57301;SDS011;43149;50.974;18.224;2023-03-05T19:29:34;17.90;;;8.10;;
57301;SDS011;43149;50.974;18.224;2023-03-05T19:39:22;12.70;;;4.90;;
57301;SDS011;43149;50.974;18.224;2023-03-05T19:49:08;6.70;;;4.00;;
57301;SDS011;43149;50.974;18.224;2023-03-05T19:58:54;3.40;;;3.10;;
57301;SDS011;43149;50.974;18.224;2023-03-05T20:08:44;20.20;;;5.40;;
57301;SDS011;43149;50.974;18.224;2023-03-05T20:18:29;6.20;;;5.20;;
57301;SDS011;43149;50.974;18.224;2023-03-05T20:28:21;13.60;;;6.90;;
57301;SDS011;43149;50.974;18.224;2023-03-05T20:38:21;16.90;;;10.40;;
57301;SDS011;43149;50.974;18.224;2023-03-05T20:48:14;25.10;;;9.40;;
57301;SDS011;43149;50.974;18.224;2023-03-05T20:57:59;34.50;;;13.80;;
57301;SDS011;43149;50.974;18.224;2023-03-05T21:07:47;31.80;;;10.00;;
57301;SDS011;43149;50.974;18.224;2023-03-05T21:17:33;22.30;;;9.90;;
57301;SDS011;43149;50.974;18.224;2023-03-05T21:27:26;25.10;;;10.40;;
57301;SDS011;43149;50.974;18.224;2023-03-05T21:37:14;40.60;;;19.00;;
57301;SDS011;43149;50.974;18.224;2023-03-05T21:46:59;36.50;;;16.20;;
57301;SDS011;43149;50.974;18.224;2023-03-05T21:57:00;33.10;;;14.30;;
57301;SDS011;43149;50.974;18.224;2023-03-05T22:06:45;28.70;;;10.80;;
57301;SDS011;43149;50.974;18.224;2023-03-05T22:16:31;15.80;;;7.50;;
57301;SDS011;43149;50.974;18.224;2023-03-05T22:26:21;22.80;;;9.00;;
57301;SDS011;43149;50.974;18.224;2023-03-05T22:36:16;28.30;;;11.40;;
57301;SDS011;43149;50.974;18.224;2023-03-05T22:41:08;35.70;;;16.90;;
57301;SDS011;43149;50.974;18.224;2023-03-05T22:51:22;18.90;;;8.60;;
57301;SDS011;43149;50.974;18.224;2023-03-05T23:01:11;14.00;;;7.20;;
57301;SDS011;43149;50.974;18.224;2023-03-05T23:10:56;11.60;;;7.70;;
57301;SDS011;43149;50.974;18.224;2023-03-05T23:20:40;24.40;;;11.30;;
57301;SDS011;43149;50.974;18.224;2023-03-05T23:30:25;22.40;;;9.70;;
57301;SDS011;43149;50.974;18.224;2023-03-05T23:40:16;39.70;;;12.50;;
57301;SDS011;43149;50.974;18.224;2023-03-05T23:50:06;15.80;;;9.60;;
57301;SDS011;43149;50.974;18.224;2023-03-05T23:59:53;17.80;;;10.60;;
